Nonquitt, Massachusetts
Current Conditions -  °F | °C
As of 2:53 PM on Saturday 25 Oct 2014 (Local Time) from KEWB Reporting Station
Clear Clear  
Wind Chill: 63°   Ceiling: Unl
Heat Index: 63°   Visibility: 10mi
Dew Point: 39°   Wind: 8mph
Humidity: 41%   Direction: 260°W
Pressure: 29.63"   Gusts: NA
Location:  41.5609°N, 70.9815°W
Report Text: KEWB 251853Z 26007KT 10SM CLR 17/04 A2963 RMK AO2 SLP034 T01720039
Loading
Personal Weather Stations






























Interactive Weather Map
Tropical Storm Tracking
New forecast layout! Learn more

10-Day Weather Forecast

Advertisements
Track Severe Weather on mobile